This is the latest recevied weather packets stored in our database for station/object F4AMY-13. If no packets are shown the sender has not sent any weather packets the latest 10 day(s).
| Time | Temp. | Humidity | Pressure | Rain* | Wind** | Luminosity | Snow |
|---|---|---|---|---|---|---|---|
| 1777715556 | 21.67° C | 36% | 1022.3 hPa | 0 mm | 28.16 m/s, ° | 63 W/m² | - |
| 1777715256 | 21.11° C | 40% | 1022.3 hPa | 0 mm | 29.95 m/s, ° | 67 W/m² | - |
| 1777714956 | 21.11° C | 39% | 1022.2 hPa | 0 mm | 27.72 m/s, ° | 62 W/m² | - |
| 1777714656 | 21.11° C | 37% | 1022.4 hPa | 0 mm | 24.59 m/s, ° | 55 W/m² | - |
| 1777714356 | 20.56° C | 37% | 1022.6 hPa | 0 mm | 24.14 m/s, ° | 54 W/m² | - |
| 1777714056 | 20.56° C | 40% | 1022.5 hPa | 0 mm | 22.8 m/s, ° | 51 W/m² | - |
| 1777713756 | 20.56° C | 38% | 1022.6 hPa | 0 mm | 22.35 m/s, ° | 50 W/m² | - |
| 1777713456 | 20° C | 38% | 1022.6 hPa | 0 mm | 19.67 m/s, ° | 44 W/m² | - |
| 1777713155 | 20° C | 38% | 1022.7 hPa | 0 mm | 18.33 m/s, ° | 41 W/m² | - |
| 1777712855 | 20° C | 36% | 1022.6 hPa | 0 mm | 17.43 m/s, ° | 39 W/m² | - |
| 1777712555 | 20° C | 38% | 1022.7 hPa | 0 mm | 19.22 m/s, ° | 43 W/m² | - |
| 1777712255 | 19.44° C | 39% | 1022.6 hPa | 0 mm | 18.78 m/s, ° | 42 W/m² | - |
| 1777711955 | 19.44° C | 37% | 1022.9 hPa | 0 mm | 18.33 m/s, ° | 41 W/m² | - |
| 1777711655 | 19.44° C | 38% | 1022.8 hPa | 0 mm | 17.43 m/s, ° | 39 W/m² | - |
| 1777711355 | 19.44° C | 38% | 1022.8 hPa | 0 mm | 15.65 m/s, ° | 35 W/m² | - |
| 1777711055 | 19.44° C | 39% | 1022.8 hPa | 0 mm | 14.75 m/s, ° | 33 W/m² | - |
| 1777710755 | 18.89° C | 40% | 1022.8 hPa | 0 mm | 16.09 m/s, ° | 36 W/m² | - |
| 1777710455 | 18.89° C | 38% | 1023.1 hPa | 0 mm | 14.31 m/s, ° | 32 W/m² | - |
| 1777710155 | 18.89° C | 40% | 1022.7 hPa | 0 mm | 14.31 m/s, ° | 32 W/m² | - |
| 1777709855 | 18.89° C | 40% | 1022.7 hPa | 0 mm | 14.31 m/s, ° | 32 W/m² | - |
| 1777709555 | 18.89° C | 40% | 1022.7 hPa | 0 mm | 16.09 m/s, ° | 36 W/m² | - |
| 1777709255 | 18.33° C | 42% | 1022.9 hPa | 0 mm | 15.65 m/s, ° | 35 W/m² | - |
| 1777708955 | 18.33° C | 42% | 1022.9 hPa | 0 mm | 15.2 m/s, ° | 34 W/m² | - |
| 1777708655 | 18.33° C | 43% | 1022.7 hPa | 0 mm | 14.31 m/s, ° | 32 W/m² | - |
| 1777708354 | 18.33° C | 43% | 1022.8 hPa | 0 mm | 13.41 m/s, ° | 30 W/m² | - |
* Rain latest hour (hover to see other rain measurements)
** Current wind speed in m/s (hover to see current wind gust speed)